AirNav   Air Wisconsin Up To $57,000 Bonus
 
 1581 users online  

18CL Bowles Airport
Live Oak, California, USA

GOING TO LIVE OAK?


FAA INFORMATION EFFECTIVE 04 NOVEMBER 2021

Location

FAA Identifier: 18CL
Lat/Long: 39-17-09.6020N 121-41-38.8970W
39-17.160033N 121-41.648283W
39.2860006,-121.6941381
(estimated)
Elevation: 75 ft. / 23 m (estimated)
Variation: 16E (1985)
From city: 2 miles W of LIVE OAK, CA
Time zone: UTC -7 (UTC -8 during Standard Time)
Zip code: 95953

Airport Operations

Airport use: Private use. Permission required prior to landing
Activation date: 04/1952
Control tower: no
ARTCC: OAKLAND CENTER
FSS: RANCHO MURIETA FLIGHT SERVICE STATION
Attendance: CONTINUOUS
Wind indicator: yes
Segmented circle: no

Airport Communications

WX ASOS at OVE (13 nm N): 121.425 (530-533-5792)
WX ASOS at MYV (13 nm SE): 118.475 (530-742-0695)

Nearby radio navigation aids

VOR radial/distance  VOR name  Freq  Var
MYVr317/12.6MARYSVILLE VOR/DME110.8016E
ILAr032/20.2WILLIAMS VORTAC114.4018E
MCCr323/39.5MC CLELLAN VOR/DME109.2017E

Airport Services

Airframe service: MINOR
Powerplant service: MINOR

Runway Information

Runway 15/33

Dimensions: 2600 x 50 ft. / 792 x 15 m
Surface: asphalt/gravel
RUNWAY 15  RUNWAY 33
Traffic pattern: leftleft
Obstructions: treestrees
DITCH & RISING TERRAIN 100' FM THR.

Airport Ownership and Management from official FAA records

Ownership: Privately-owned
Owner: SCHMIDL BROTHERS
P.O. BOX 717
LIVE OAK, CA 95953
Phone 530-695-2756
Manager: RUSSELL SCHMIDL
P.O. BOX 717
LIVE OAK, CA 95953
Phone 530-695-2756

Airport Operational Statistics

Aircraft based on the field: 6
Single engine airplanes: 6
    

Additional Remarks

FOR CD CTC NORCAL APCH AT 916-361-6874.

Instrument Procedures

There are no published instrument procedures at 18CL.

Some nearby airports with instrument procedures:

KOVE - Oroville Municipal Airport (13 nm N)
KMYV - Yuba County Airport (13 nm SE)
KBAB - Beale Air Force Base (15 nm SE)
O08 - Colusa County Airport (15 nm SW)
KLHM - Lincoln Regional Airport/Karl Harder Field (28 nm SE)
 
Loc | Ops | Rwys | IFR | FBO | Links
Com | Nav | Svcs | Stats | Notes
Area around 18CL (Bowles Airport)
 
Road maps at: MapQuest Bing Google
 
Aerial photo
No photo
 
Sectional chart

 
Airport distance calculator
Flying to Bowles Airport? Find the distance to fly.

From to 18CL

Sunrise and sunset
Times for 29-Nov-2021
 Local
(UTC-8)
 Zulu
(UTC)
Morning civil twilight06:3714:37
Sunrise07:0715:07
Sunset16:4400:44
Evening civil twilight17:1301:13

Current date and time
Zulu (UTC)  30-Nov-2021 01:17:47
Local (UTC-8)  29-Nov-2021 17:17:47
 
METAR
KMYV 
13nm SE 
300053Z AUTO 36003KT 10SM CLR 17/11 A3010 RMK AO2 SLP197 T01720106
KOVE 
13nm N 
300053Z AUTO 00000KT 10SM CLR 16/12 A3012 RMK AO2 SLP201 T01610122
KBAB 
15nm SE 
300058Z AUTO 34004KT 10SM CLR 14/11 A3009 RMK AO2 SLP193 T01390109 $
TAF
KBAB 
15nm SE 
291900Z 2919/0101 31006KT 9999 SKC QNH3010INS BECMG 3003/3004 03006KT 9999 SKC QNH3011INS BECMG 3009/3010 12006KT 9999 SKC QNH3012INS BECMG 3012/3013 VRB06KT 9000 BR SKC QNH3012INS BECMG 3017/3018 32006KT 9999 NSW SKC QNH3009INS TX18/2923Z TN06/3014Z
NOTAMs
Click for the latest NOTAMs
NOTAMs are issued by the DoD/FAA and will open in a separate window not controlled by AirNav.

 

 
 

Would you like to see your business listed on this page?

 If your business provides an interesting product or service to pilots, flight crews, aircraft, or users of the Bowles Airport, you should consider listing it here.  To start the listing process, click on the button below
 
Add a business
 

Other Pages about Bowles Airport

Update a link
 
Copyright © AirNav, LLC. All rights reserved. Privacy Policy  Contact